sensor_id;sensor_type;location;lat;lon;timestamp;P1;durP1;ratioP1;P2;durP2;ratioP2
58306;SDS011;44116;50.884;4.768;2023-05-29T00:01:48;10.8;;;5.3;;
58306;SDS011;44116;50.884;4.768;2023-05-29T00:03:48;12.1;;;5.0;;
58306;SDS011;44116;50.884;4.768;2023-05-29T00:05:48;11.9;;;5.1;;
58306;SDS011;44116;50.884;4.768;2023-05-29T00:07:47;15.4;;;4.7;;
58306;SDS011;44116;50.884;4.768;2023-05-29T00:09:47;10.1;;;5.0;;
58306;SDS011;44116;50.884;4.768;2023-05-29T00:11:47;11.5;;;4.9;;
58306;SDS011;44116;50.884;4.768;2023-05-29T00:13:47;12.6;;;5.1;;
58306;SDS011;44116;50.884;4.768;2023-05-29T00:15:47;13.1;;;5.3;;
58306;SDS011;44116;50.884;4.768;2023-05-29T00:17:47;10.7;;;4.8;;
58306;SDS011;44116;50.884;4.768;2023-05-29T00:19:46;11.3;;;5.2;;
58306;SDS011;44116;50.884;4.768;2023-05-29T00:21:46;11.7;;;5.5;;
58306;SDS011;44116;50.884;4.768;2023-05-29T00:23:47;10.2;;;5.0;;
58306;SDS011;44116;50.884;4.768;2023-05-29T00:25:46;10.6;;;5.2;;
58306;SDS011;44116;50.884;4.768;2023-05-29T00:27:46;12.1;;;5.0;;
58306;SDS011;44116;50.884;4.768;2023-05-29T00:29:46;9.6;;;4.7;;
58306;SDS011;44116;50.884;4.768;2023-05-29T00:31:45;10.5;;;5.0;;
58306;SDS011;44116;50.884;4.768;2023-05-29T00:35:45;10.3;;;5.4;;
58306;SDS011;44116;50.884;4.768;2023-05-29T00:37:45;9.8;;;5.3;;
58306;SDS011;44116;50.884;4.768;2023-05-29T00:39:45;15.1;;;5.7;;
58306;SDS011;44116;50.884;4.768;2023-05-29T00:41:44;9.8;;;5.2;;
58306;SDS011;44116;50.884;4.768;2023-05-29T00:43:44;11.2;;;5.3;;
58306;SDS011;44116;50.884;4.768;2023-05-29T00:45:44;12.7;;;5.9;;
58306;SDS011;44116;50.884;4.768;2023-05-29T00:47:44;11.1;;;5.4;;
58306;SDS011;44116;50.884;4.768;2023-05-29T00:49:44;12.2;;;5.7;;
58306;SDS011;44116;50.884;4.768;2023-05-29T00:51:44;9.3;;;5.2;;
58306;SDS011;44116;50.884;4.768;2023-05-29T00:53:44;11.8;;;6.3;;
58306;SDS011;44116;50.884;4.768;2023-05-29T00:55:43;12.3;;;5.5;;
58306;SDS011;44116;50.884;4.768;2023-05-29T00:57:43;12.7;;;6.0;;
58306;SDS011;44116;50.884;4.768;2023-05-29T00:59:43;9.9;;;5.5;;
58306;SDS011;44116;50.884;4.768;2023-05-29T01:01:43;10.9;;;5.8;;
58306;SDS011;44116;50.884;4.768;2023-05-29T01:03:42;14.9;;;6.1;;
58306;SDS011;44116;50.884;4.768;2023-05-29T01:05:42;12.4;;;5.6;;
58306;SDS011;44116;50.884;4.768;2023-05-29T01:07:42;13.2;;;6.5;;
58306;SDS011;44116;50.884;4.768;2023-05-29T01:09:42;11.4;;;6.0;;
58306;SDS011;44116;50.884;4.768;2023-05-29T01:11:50;15.9;;;6.7;;
58306;SDS011;44116;50.884;4.768;2023-05-29T01:13:44;13.0;;;6.4;;
58306;SDS011;44116;50.884;4.768;2023-05-29T01:15:46;13.9;;;6.7;;
58306;SDS011;44116;50.884;4.768;2023-05-29T01:17:50;14.1;;;6.6;;
58306;SDS011;44116;50.884;4.768;2023-05-29T01:19:52;12.5;;;6.8;;
58306;SDS011;44116;50.884;4.768;2023-05-29T01:21:49;14.4;;;6.9;;
58306;SDS011;44116;50.884;4.768;2023-05-29T01:25:50;14.7;;;6.6;;
58306;SDS011;44116;50.884;4.768;2023-05-29T01:27:41;13.8;;;6.7;;
58306;SDS011;44116;50.884;4.768;2023-05-29T01:29:42;13.8;;;6.8;;
58306;SDS011;44116;50.884;4.768;2023-05-29T01:31:42;12.3;;;7.0;;
58306;SDS011;44116;50.884;4.768;2023-05-29T01:33:40;12.4;;;6.9;;
58306;SDS011;44116;50.884;4.768;2023-05-29T01:35:39;12.2;;;6.6;;
58306;SDS011;44116;50.884;4.768;2023-05-29T01:37:39;11.9;;;6.7;;
58306;SDS011;44116;50.884;4.768;2023-05-29T01:39:39;14.4;;;7.5;;
58306;SDS011;44116;50.884;4.768;2023-05-29T01:41:39;15.3;;;7.2;;
58306;SDS011;44116;50.884;4.768;2023-05-29T01:43:39;12.5;;;7.0;;
58306;SDS011;44116;50.884;4.768;2023-05-29T01:45:38;13.4;;;6.7;;
58306;SDS011;44116;50.884;4.768;2023-05-29T01:47:38;14.0;;;6.9;;
58306;SDS011;44116;50.884;4.768;2023-05-29T01:49:39;14.9;;;7.2;;
58306;SDS011;44116;50.884;4.768;2023-05-29T01:51:38;14.9;;;7.0;;
58306;SDS011;44116;50.884;4.768;2023-05-29T01:53:37;14.5;;;7.5;;
58306;SDS011;44116;50.884;4.768;2023-05-29T01:55:37;16.2;;;7.7;;
58306;SDS011;44116;50.884;4.768;2023-05-29T01:57:37;13.6;;;6.6;;
58306;SDS011;44116;50.884;4.768;2023-05-29T01:59:37;12.7;;;7.1;;
58306;SDS011;44116;50.884;4.768;2023-05-29T02:01:38;14.2;;;7.4;;
58306;SDS011;44116;50.884;4.768;2023-05-29T02:05:36;15.8;;;7.7;;
58306;SDS011;44116;50.884;4.768;2023-05-29T02:07:36;16.5;;;7.6;;
58306;SDS011;44116;50.884;4.768;2023-05-29T02:09:36;16.6;;;7.4;;
58306;SDS011;44116;50.884;4.768;2023-05-29T02:11:35;13.8;;;7.3;;
58306;SDS011;44116;50.884;4.768;2023-05-29T02:15:35;15.3;;;7.1;;
58306;SDS011;44116;50.884;4.768;2023-05-29T02:17:34;16.9;;;7.5;;
58306;SDS011;44116;50.884;4.768;2023-05-29T02:19:34;14.7;;;6.8;;
58306;SDS011;44116;50.884;4.768;2023-05-29T02:23:34;15.2;;;7.0;;
58306;SDS011;44116;50.884;4.768;2023-05-29T02:25:34;15.9;;;7.1;;
58306;SDS011;44116;50.884;4.768;2023-05-29T02:27:33;15.6;;;6.4;;
58306;SDS011;44116;50.884;4.768;2023-05-29T02:29:33;13.6;;;6.5;;
58306;SDS011;44116;50.884;4.768;2023-05-29T02:31:33;17.5;;;6.9;;
58306;SDS011;44116;50.884;4.768;2023-05-29T02:33:33;16.4;;;6.5;;
58306;SDS011;44116;50.884;4.768;2023-05-29T02:35:33;17.8;;;7.1;;
58306;SDS011;44116;50.884;4.768;2023-05-29T02:39:32;14.1;;;6.5;;
58306;SDS011;44116;50.884;4.768;2023-05-29T02:41:32;15.3;;;7.1;;
58306;SDS011;44116;50.884;4.768;2023-05-29T02:43:31;14.1;;;6.4;;
58306;SDS011;44116;50.884;4.768;2023-05-29T02:45:31;14.6;;;7.1;;
58306;SDS011;44116;50.884;4.768;2023-05-29T02:47:31;14.3;;;6.5;;
58306;SDS011;44116;50.884;4.768;2023-05-29T02:49:31;16.1;;;6.9;;
58306;SDS011;44116;50.884;4.768;2023-05-29T02:51:30;16.4;;;6.4;;
58306;SDS011;44116;50.884;4.768;2023-05-29T02:55:30;16.3;;;6.1;;
58306;SDS011;44116;50.884;4.768;2023-05-29T02:57:30;16.1;;;6.2;;
58306;SDS011;44116;50.884;4.768;2023-05-29T03:01:29;15.9;;;6.1;;
58306;SDS011;44116;50.884;4.768;2023-05-29T03:03:29;15.8;;;6.8;;
58306;SDS011;44116;50.884;4.768;2023-05-29T03:05:29;14.5;;;6.1;;
58306;SDS011;44116;50.884;4.768;2023-05-29T03:07:28;15.4;;;5.5;;
58306;SDS011;44116;50.884;4.768;2023-05-29T03:09:28;15.8;;;6.0;;
58306;SDS011;44116;50.884;4.768;2023-05-29T03:15:27;13.8;;;5.7;;
58306;SDS011;44116;50.884;4.768;2023-05-29T03:17:27;13.3;;;5.8;;
58306;SDS011;44116;50.884;4.768;2023-05-29T03:19:27;16.2;;;5.2;;
58306;SDS011;44116;50.884;4.768;2023-05-29T03:21:27;13.4;;;5.0;;
58306;SDS011;44116;50.884;4.768;2023-05-29T03:23:27;14.5;;;6.0;;
58306;SDS011;44116;50.884;4.768;2023-05-29T03:25:26;14.9;;;5.5;;
58306;SDS011;44116;50.884;4.768;2023-05-29T03:27:26;16.7;;;5.2;;
58306;SDS011;44116;50.884;4.768;2023-05-29T03:29:26;16.7;;;5.7;;
58306;SDS011;44116;50.884;4.768;2023-05-29T03:31:25;12.2;;;4.8;;
58306;SDS011;44116;50.884;4.768;2023-05-29T03:33:25;16.3;;;5.3;;
58306;SDS011;44116;50.884;4.768;2023-05-29T03:35:25;12.1;;;4.3;;
58306;SDS011;44116;50.884;4.768;2023-05-29T03:37:25;12.6;;;4.7;;
58306;SDS011;44116;50.884;4.768;2023-05-29T03:39:24;14.2;;;5.1;;
58306;SDS011;44116;50.884;4.768;2023-05-29T03:41:24;14.8;;;4.6;;
58306;SDS011;44116;50.884;4.768;2023-05-29T03:43:24;15.6;;;4.7;;
58306;SDS011;44116;50.884;4.768;2023-05-29T03:45:24;14.0;;;4.3;;
58306;SDS011;44116;50.884;4.768;2023-05-29T03:47:23;11.3;;;4.1;;
58306;SDS011;44116;50.884;4.768;2023-05-29T03:51:23;14.4;;;4.2;;
58306;SDS011;44116;50.884;4.768;2023-05-29T03:53:23;11.7;;;3.9;;
58306;SDS011;44116;50.884;4.768;2023-05-29T03:55:23;17.8;;;4.5;;
58306;SDS011;44116;50.884;4.768;2023-05-29T03:57:22;15.7;;;4.4;;
58306;SDS011;44116;50.884;4.768;2023-05-29T03:59:22;12.3;;;4.2;;
58306;SDS011;44116;50.884;4.768;2023-05-29T04:01:22;13.2;;;3.9;;
58306;SDS011;44116;50.884;4.768;2023-05-29T04:03:21;14.2;;;4.0;;
58306;SDS011;44116;50.884;4.768;2023-05-29T04:05:22;12.7;;;4.1;;
58306;SDS011;44116;50.884;4.768;2023-05-29T04:07:21;15.5;;;4.8;;
58306;SDS011;44116;50.884;4.768;2023-05-29T04:09:20;15.8;;;4.3;;
58306;SDS011;44116;50.884;4.768;2023-05-29T04:11:20;12.8;;;3.3;;
58306;SDS011;44116;50.884;4.768;2023-05-29T04:13:20;11.1;;;3.5;;
58306;SDS011;44116;50.884;4.768;2023-05-29T04:15:20;14.7;;;3.7;;
58306;SDS011;44116;50.884;4.768;2023-05-29T04:17:20;10.6;;;3.4;;
58306;SDS011;44116;50.884;4.768;2023-05-29T04:19:19;13.2;;;3.5;;
58306;SDS011;44116;50.884;4.768;2023-05-29T04:21:19;16.0;;;3.6;;
58306;SDS011;44116;50.884;4.768;2023-05-29T04:23:19;13.9;;;3.3;;
58306;SDS011;44116;50.884;4.768;2023-05-29T04:25:18;12.4;;;3.2;;
58306;SDS011;44116;50.884;4.768;2023-05-29T04:27:18;15.2;;;3.4;;
58306;SDS011;44116;50.884;4.768;2023-05-29T04:29:18;15.0;;;3.7;;
58306;SDS011;44116;50.884;4.768;2023-05-29T04:31:18;16.1;;;4.0;;
58306;SDS011;44116;50.884;4.768;2023-05-29T04:33:19;13.2;;;3.4;;
58306;SDS011;44116;50.884;4.768;2023-05-29T04:35:17;12.3;;;3.6;;
58306;SDS011;44116;50.884;4.768;2023-05-29T04:37:17;16.2;;;3.9;;
58306;SDS011;44116;50.884;4.768;2023-05-29T04:39:17;14.2;;;3.8;;
58306;SDS011;44116;50.884;4.768;2023-05-29T04:41:16;13.4;;;3.6;;
58306;SDS011;44116;50.884;4.768;2023-05-29T04:43:16;14.5;;;3.8;;
58306;SDS011;44116;50.884;4.768;2023-05-29T04:45:18;11.8;;;3.9;;
58306;SDS011;44116;50.884;4.768;2023-05-29T04:47:15;11.5;;;3.6;;
58306;SDS011;44116;50.884;4.768;2023-05-29T04:49:15;13.7;;;3.7;;
58306;SDS011;44116;50.884;4.768;2023-05-29T04:51:15;10.7;;;3.1;;
58306;SDS011;44116;50.884;4.768;2023-05-29T04:53:15;15.2;;;3.5;;
58306;SDS011;44116;50.884;4.768;2023-05-29T04:57:14;10.6;;;2.9;;
58306;SDS011;44116;50.884;4.768;2023-05-29T04:59:14;15.1;;;3.7;;
58306;SDS011;44116;50.884;4.768;2023-05-29T05:01:14;12.3;;;3.4;;
58306;SDS011;44116;50.884;4.768;2023-05-29T05:03:13;14.1;;;3.5;;
58306;SDS011;44116;50.884;4.768;2023-05-29T05:07:13;11.4;;;3.1;;
58306;SDS011;44116;50.884;4.768;2023-05-29T05:09:13;15.9;;;3.7;;
58306;SDS011;44116;50.884;4.768;2023-05-29T05:11:13;9.8;;;3.1;;
58306;SDS011;44116;50.884;4.768;2023-05-29T05:13:12;13.4;;;3.5;;
58306;SDS011;44116;50.884;4.768;2023-05-29T05:15:12;11.2;;;3.1;;
58306;SDS011;44116;50.884;4.768;2023-05-29T05:17:12;14.5;;;3.5;;
58306;SDS011;44116;50.884;4.768;2023-05-29T05:19:11;13.8;;;4.0;;
58306;SDS011;44116;50.884;4.768;2023-05-29T05:21:11;13.2;;;3.7;;
58306;SDS011;44116;50.884;4.768;2023-05-29T05:23:11;12.4;;;3.4;;
58306;SDS011;44116;50.884;4.768;2023-05-29T05:25:11;16.3;;;3.7;;
58306;SDS011;44116;50.884;4.768;2023-05-29T05:27:11;15.4;;;3.8;;
58306;SDS011;44116;50.884;4.768;2023-05-29T05:29:10;13.1;;;3.5;;
58306;SDS011;44116;50.884;4.768;2023-05-29T05:31:10;12.6;;;3.7;;
58306;SDS011;44116;50.884;4.768;2023-05-29T05:33:10;14.6;;;3.8;;
58306;SDS011;44116;50.884;4.768;2023-05-29T05:35:09;16.8;;;3.6;;
58306;SDS011;44116;50.884;4.768;2023-05-29T05:37:09;17.2;;;3.9;;
58306;SDS011;44116;50.884;4.768;2023-05-29T05:39:09;13.1;;;3.7;;
58306;SDS011;44116;50.884;4.768;2023-05-29T05:41:09;14.8;;;3.6;;
58306;SDS011;44116;50.884;4.768;2023-05-29T05:43:08;14.0;;;3.9;;
58306;SDS011;44116;50.884;4.768;2023-05-29T05:45:09;13.3;;;3.6;;
58306;SDS011;44116;50.884;4.768;2023-05-29T05:47:08;16.9;;;3.4;;
58306;SDS011;44116;50.884;4.768;2023-05-29T05:49:08;14.5;;;3.5;;
58306;SDS011;44116;50.884;4.768;2023-05-29T05:51:08;14.4;;;3.9;;
58306;SDS011;44116;50.884;4.768;2023-05-29T05:53:07;12.8;;;3.1;;
58306;SDS011;44116;50.884;4.768;2023-05-29T05:55:07;15.7;;;3.4;;
58306;SDS011;44116;50.884;4.768;2023-05-29T05:57:07;17.1;;;4.0;;
58306;SDS011;44116;50.884;4.768;2023-05-29T05:59:06;13.7;;;4.1;;
58306;SDS011;44116;50.884;4.768;2023-05-29T06:01:06;16.0;;;3.7;;
58306;SDS011;44116;50.884;4.768;2023-05-29T06:05:06;12.4;;;3.4;;
58306;SDS011;44116;50.884;4.768;2023-05-29T06:07:05;14.8;;;3.9;;
58306;SDS011;44116;50.884;4.768;2023-05-29T06:09:05;10.8;;;3.4;;
58306;SDS011;44116;50.884;4.768;2023-05-29T06:11:05;17.2;;;3.7;;
58306;SDS011;44116;50.884;4.768;2023-05-29T06:13:05;16.2;;;4.3;;
58306;SDS011;44116;50.884;4.768;2023-05-29T06:15:05;14.9;;;3.6;;
58306;SDS011;44116;50.884;4.768;2023-05-29T06:17:04;18.3;;;4.0;;
58306;SDS011;44116;50.884;4.768;2023-05-29T06:19:04;13.4;;;3.5;;
58306;SDS011;44116;50.884;4.768;2023-05-29T06:21:04;15.0;;;3.8;;
58306;SDS011;44116;50.884;4.768;2023-05-29T06:23:04;15.7;;;4.2;;
58306;SDS011;44116;50.884;4.768;2023-05-29T06:25:04;17.4;;;3.9;;
58306;SDS011;44116;50.884;4.768;2023-05-29T06:27:03;17.1;;;3.4;;
58306;SDS011;44116;50.884;4.768;2023-05-29T06:29:03;18.3;;;4.6;;
58306;SDS011;44116;50.884;4.768;2023-05-29T06:31:03;14.2;;;3.8;;
58306;SDS011;44116;50.884;4.768;2023-05-29T06:35:03;14.0;;;4.0;;
58306;SDS011;44116;50.884;4.768;2023-05-29T06:37:02;15.0;;;3.7;;
58306;SDS011;44116;50.884;4.768;2023-05-29T06:43:01;14.7;;;3.8;;
58306;SDS011;44116;50.884;4.768;2023-05-29T06:45:01;12.6;;;3.6;;
58306;SDS011;44116;50.884;4.768;2023-05-29T06:47:01;15.0;;;3.5;;
58306;SDS011;44116;50.884;4.768;2023-05-29T06:51:00;16.6;;;4.0;;
58306;SDS011;44116;50.884;4.768;2023-05-29T06:53:00;14.5;;;3.5;;
58306;SDS011;44116;50.884;4.768;2023-05-29T06:55:00;15.6;;;4.0;;
58306;SDS011;44116;50.884;4.768;2023-05-29T06:56:59;12.8;;;3.1;;
58306;SDS011;44116;50.884;4.768;2023-05-29T06:58:59;13.8;;;3.4;;
58306;SDS011;44116;50.884;4.768;2023-05-29T07:00:59;12.2;;;3.6;;
58306;SDS011;44116;50.884;4.768;2023-05-29T07:02:59;15.5;;;3.9;;
58306;SDS011;44116;50.884;4.768;2023-05-29T07:04:59;18.5;;;4.0;;
58306;SDS011;44116;50.884;4.768;2023-05-29T07:06:58;17.5;;;4.1;;
58306;SDS011;44116;50.884;4.768;2023-05-29T07:08:58;15.6;;;3.7;;
58306;SDS011;44116;50.884;4.768;2023-05-29T07:10:58;17.1;;;3.6;;
58306;SDS011;44116;50.884;4.768;2023-05-29T07:12:58;18.0;;;4.3;;
58306;SDS011;44116;50.884;4.768;2023-05-29T07:14:57;14.5;;;3.5;;
58306;SDS011;44116;50.884;4.768;2023-05-29T07:18:57;11.1;;;3.4;;
58306;SDS011;44116;50.884;4.768;2023-05-29T07:20:57;14.0;;;3.3;;
58306;SDS011;44116;50.884;4.768;2023-05-29T07:22:57;11.8;;;3.1;;
58306;SDS011;44116;50.884;4.768;2023-05-29T07:24:56;17.3;;;3.5;;
58306;SDS011;44116;50.884;4.768;2023-05-29T07:26:56;13.8;;;3.4;;
58306;SDS011;44116;50.884;4.768;2023-05-29T07:28:56;13.5;;;2.9;;
58306;SDS011;44116;50.884;4.768;2023-05-29T07:30:56;11.5;;;3.2;;
58306;SDS011;44116;50.884;4.768;2023-05-29T07:32:55;12.9;;;3.6;;
58306;SDS011;44116;50.884;4.768;2023-05-29T07:34:55;11.3;;;3.2;;
58306;SDS011;44116;50.884;4.768;2023-05-29T07:36:56;12.5;;;3.7;;
58306;SDS011;44116;50.884;4.768;2023-05-29T07:40:55;15.8;;;3.8;;
58306;SDS011;44116;50.884;4.768;2023-05-29T07:42:54;14.5;;;3.1;;
58306;SDS011;44116;50.884;4.768;2023-05-29T07:44:54;17.5;;;3.5;;
58306;SDS011;44116;50.884;4.768;2023-05-29T07:46:54;19.8;;;4.2;;
58306;SDS011;44116;50.884;4.768;2023-05-29T07:48:54;17.6;;;3.3;;
58306;SDS011;44116;50.884;4.768;2023-05-29T07:50:53;15.2;;;3.8;;
58306;SDS011;44116;50.884;4.768;2023-05-29T07:52:53;12.2;;;3.3;;
58306;SDS011;44116;50.884;4.768;2023-05-29T07:54:53;12.4;;;3.4;;
58306;SDS011;44116;50.884;4.768;2023-05-29T07:56:53;15.3;;;3.5;;
58306;SDS011;44116;50.884;4.768;2023-05-29T07:58:53;11.3;;;3.3;;
58306;SDS011;44116;50.884;4.768;2023-05-29T08:04:52;13.1;;;3.1;;
58306;SDS011;44116;50.884;4.768;2023-05-29T08:06:52;12.9;;;3.5;;
58306;SDS011;44116;50.884;4.768;2023-05-29T08:08:52;15.3;;;3.7;;
58306;SDS011;44116;50.884;4.768;2023-05-29T08:10:51;9.8;;;2.8;;
58306;SDS011;44116;50.884;4.768;2023-05-29T08:12:51;15.7;;;3.7;;
58306;SDS011;44116;50.884;4.768;2023-05-29T08:14:51;10.8;;;3.3;;
58306;SDS011;44116;50.884;4.768;2023-05-29T08:16:51;14.3;;;3.4;;
58306;SDS011;44116;50.884;4.768;2023-05-29T08:18:51;12.3;;;3.0;;
58306;SDS011;44116;50.884;4.768;2023-05-29T08:20:51;12.4;;;3.4;;
58306;SDS011;44116;50.884;4.768;2023-05-29T08:22:50;19.1;;;3.9;;
58306;SDS011;44116;50.884;4.768;2023-05-29T08:24:50;19.7;;;4.6;;
58306;SDS011;44116;50.884;4.768;2023-05-29T08:26:50;14.1;;;3.3;;
58306;SDS011;44116;50.884;4.768;2023-05-29T08:28:50;12.0;;;3.4;;
58306;SDS011;44116;50.884;4.768;2023-05-29T08:30:50;18.1;;;4.2;;
58306;SDS011;44116;50.884;4.768;2023-05-29T08:32:49;12.7;;;3.4;;
58306;SDS011;44116;50.884;4.768;2023-05-29T08:34:51;12.1;;;3.3;;
58306;SDS011;44116;50.884;4.768;2023-05-29T08:38:49;12.0;;;3.6;;
58306;SDS011;44116;50.884;4.768;2023-05-29T08:42:54;11.3;;;3.1;;
58306;SDS011;44116;50.884;4.768;2023-05-29T08:44:48;13.1;;;3.5;;
58306;SDS011;44116;50.884;4.768;2023-05-29T08:50:48;10.0;;;3.3;;
58306;SDS011;44116;50.884;4.768;2023-05-29T08:52:47;13.9;;;3.8;;
58306;SDS011;44116;50.884;4.768;2023-05-29T08:54:48;14.0;;;3.9;;
58306;SDS011;44116;50.884;4.768;2023-05-29T08:56:47;11.8;;;3.6;;
58306;SDS011;44116;50.884;4.768;2023-05-29T09:00:47;15.5;;;4.3;;
58306;SDS011;44116;50.884;4.768;2023-05-29T09:02:47;15.5;;;3.6;;
58306;SDS011;44116;50.884;4.768;2023-05-29T09:04:47;13.4;;;4.1;;
58306;SDS011;44116;50.884;4.768;2023-05-29T09:06:46;11.8;;;3.5;;
58306;SDS011;44116;50.884;4.768;2023-05-29T09:08:46;14.0;;;3.8;;
58306;SDS011;44116;50.884;4.768;2023-05-29T09:10:46;13.4;;;3.9;;
58306;SDS011;44116;50.884;4.768;2023-05-29T09:12:46;12.3;;;3.8;;
58306;SDS011;44116;50.884;4.768;2023-05-29T09:16:45;12.7;;;3.5;;
58306;SDS011;44116;50.884;4.768;2023-05-29T09:18:45;14.3;;;3.8;;
58306;SDS011;44116;50.884;4.768;2023-05-29T09:20:45;14.1;;;3.4;;
58306;SDS011;44116;50.884;4.768;2023-05-29T09:22:52;18.6;;;3.9;;
58306;SDS011;44116;50.884;4.768;2023-05-29T09:26:48;18.0;;;4.0;;
58306;SDS011;44116;50.884;4.768;2023-05-29T09:28:45;14.3;;;3.6;;
58306;SDS011;44116;50.884;4.768;2023-05-29T09:30:45;18.8;;;3.7;;
58306;SDS011;44116;50.884;4.768;2023-05-29T09:32:44;13.2;;;3.9;;
58306;SDS011;44116;50.884;4.768;2023-05-29T09:34:44;16.4;;;4.0;;
58306;SDS011;44116;50.884;4.768;2023-05-29T09:36:44;14.5;;;4.1;;
58306;SDS011;44116;50.884;4.768;2023-05-29T09:38:45;14.5;;;3.8;;
58306;SDS011;44116;50.884;4.768;2023-05-29T09:42:43;12.2;;;3.5;;
58306;SDS011;44116;50.884;4.768;2023-05-29T09:44:45;15.0;;;3.3;;
58306;SDS011;44116;50.884;4.768;2023-05-29T09:46:43;13.7;;;3.5;;
58306;SDS011;44116;50.884;4.768;2023-05-29T09:48:43;15.3;;;3.4;;
58306;SDS011;44116;50.884;4.768;2023-05-29T09:50:43;13.5;;;3.3;;
58306;SDS011;44116;50.884;4.768;2023-05-29T09:52:42;14.1;;;3.8;;
58306;SDS011;44116;50.884;4.768;2023-05-29T09:54:43;15.5;;;3.4;;
58306;SDS011;44116;50.884;4.768;2023-05-29T09:58:42;16.3;;;3.6;;
58306;SDS011;44116;50.884;4.768;2023-05-29T10:02:41;15.8;;;3.8;;
58306;SDS011;44116;50.884;4.768;2023-05-29T10:04:41;14.5;;;3.5;;
58306;SDS011;44116;50.884;4.768;2023-05-29T10:06:45;15.7;;;3.6;;
58306;SDS011;44116;50.884;4.768;2023-05-29T10:08:45;14.5;;;3.7;;
58306;SDS011;44116;50.884;4.768;2023-05-29T10:10:44;12.4;;;3.3;;
58306;SDS011;44116;50.884;4.768;2023-05-29T10:12:45;13.6;;;3.4;;
58306;SDS011;44116;50.884;4.768;2023-05-29T10:18:43;10.4;;;3.1;;
58306;SDS011;44116;50.884;4.768;2023-05-29T10:20:41;15.0;;;3.6;;
58306;SDS011;44116;50.884;4.768;2023-05-29T10:22:43;14.4;;;3.8;;
58306;SDS011;44116;50.884;4.768;2023-05-29T10:24:40;12.1;;;3.0;;
58306;SDS011;44116;50.884;4.768;2023-05-29T10:26:40;14.5;;;3.2;;
58306;SDS011;44116;50.884;4.768;2023-05-29T10:28:42;14.3;;;3.4;;
58306;SDS011;44116;50.884;4.768;2023-05-29T10:30:45;16.4;;;3.7;;
58306;SDS011;44116;50.884;4.768;2023-05-29T10:34:43;11.9;;;2.9;;
58306;SDS011;44116;50.884;4.768;2023-05-29T10:36:44;14.1;;;3.5;;
58306;SDS011;44116;50.884;4.768;2023-05-29T10:38:40;11.5;;;3.2;;
58306;SDS011;44116;50.884;4.768;2023-05-29T10:40:39;15.4;;;4.1;;
58306;SDS011;44116;50.884;4.768;2023-05-29T10:42:44;16.5;;;3.5;;
58306;SDS011;44116;50.884;4.768;2023-05-29T10:48:39;15.3;;;3.7;;
58306;SDS011;44116;50.884;4.768;2023-05-29T10:50:40;13.0;;;4.4;;
58306;SDS011;44116;50.884;4.768;2023-05-29T10:52:45;12.7;;;3.7;;
58306;SDS011;44116;50.884;4.768;2023-05-29T10:54:51;14.3;;;3.4;;
58306;SDS011;44116;50.884;4.768;2023-05-29T10:56:37;13.9;;;3.6;;
58306;SDS011;44116;50.884;4.768;2023-05-29T10:58:37;9.9;;;3.2;;
58306;SDS011;44116;50.884;4.768;2023-05-29T11:00:40;17.2;;;4.3;;
58306;SDS011;44116;50.884;4.768;2023-05-29T11:02:38;17.1;;;6.4;;
58306;SDS011;44116;50.884;4.768;2023-05-29T11:04:37;13.9;;;4.1;;
58306;SDS011;44116;50.884;4.768;2023-05-29T11:06:38;11.3;;;4.5;;
58306;SDS011;44116;50.884;4.768;2023-05-29T11:08:42;19.3;;;7.2;;
58306;SDS011;44116;50.884;4.768;2023-05-29T11:14:45;12.4;;;3.9;;
58306;SDS011;44116;50.884;4.768;2023-05-29T11:18:38;12.3;;;3.8;;
58306;SDS011;44116;50.884;4.768;2023-05-29T11:20:37;12.0;;;3.2;;
58306;SDS011;44116;50.884;4.768;2023-05-29T11:22:53;11.1;;;3.4;;
58306;SDS011;44116;50.884;4.768;2023-05-29T11:24:36;11.6;;;3.1;;
58306;SDS011;44116;50.884;4.768;2023-05-29T11:26:37;13.1;;;3.2;;
58306;SDS011;44116;50.884;4.768;2023-05-29T11:30:40;12.2;;;3.3;;
58306;SDS011;44116;50.884;4.768;2023-05-29T11:32:36;10.9;;;3.0;;
58306;SDS011;44116;50.884;4.768;2023-05-29T11:34:39;15.5;;;3.9;;
58306;SDS011;44116;50.884;4.768;2023-05-29T11:36:36;11.8;;;3.5;;
58306;SDS011;44116;50.884;4.768;2023-05-29T11:38:36;14.4;;;3.4;;
58306;SDS011;44116;50.884;4.768;2023-05-29T11:40:36;12.7;;;3.7;;
58306;SDS011;44116;50.884;4.768;2023-05-29T11:42:35;14.3;;;3.5;;
58306;SDS011;44116;50.884;4.768;2023-05-29T11:44:35;13.1;;;3.8;;
58306;SDS011;44116;50.884;4.768;2023-05-29T11:46:34;13.2;;;3.2;;
58306;SDS011;44116;50.884;4.768;2023-05-29T11:48:44;12.4;;;3.5;;
58306;SDS011;44116;50.884;4.768;2023-05-29T11:52:34;13.6;;;3.4;;
58306;SDS011;44116;50.884;4.768;2023-05-29T11:54:34;10.3;;;2.9;;
58306;SDS011;44116;50.884;4.768;2023-05-29T11:56:34;10.9;;;2.7;;
58306;SDS011;44116;50.884;4.768;2023-05-29T11:58:33;13.9;;;3.7;;
58306;SDS011;44116;50.884;4.768;2023-05-29T12:00:35;13.0;;;3.1;;
58306;SDS011;44116;50.884;4.768;2023-05-29T12:02:33;11.3;;;2.7;;
58306;SDS011;44116;50.884;4.768;2023-05-29T12:04:33;12.1;;;3.5;;
58306;SDS011;44116;50.884;4.768;2023-05-29T12:06:34;11.0;;;3.0;;
58306;SDS011;44116;50.884;4.768;2023-05-29T12:08:33;11.8;;;3.7;;
58306;SDS011;44116;50.884;4.768;2023-05-29T12:10:33;10.2;;;3.1;;
58306;SDS011;44116;50.884;4.768;2023-05-29T12:12:33;13.1;;;3.3;;
58306;SDS011;44116;50.884;4.768;2023-05-29T12:14:33;13.2;;;3.5;;
58306;SDS011;44116;50.884;4.768;2023-05-29T12:16:34;10.1;;;3.2;;
58306;SDS011;44116;50.884;4.768;2023-05-29T12:18:33;10.6;;;3.0;;
58306;SDS011;44116;50.884;4.768;2023-05-29T12:20:32;15.3;;;3.5;;
58306;SDS011;44116;50.884;4.768;2023-05-29T12:22:33;11.5;;;3.2;;
58306;SDS011;44116;50.884;4.768;2023-05-29T12:24:34;11.7;;;3.0;;
58306;SDS011;44116;50.884;4.768;2023-05-29T12:26:32;12.7;;;3.5;;
58306;SDS011;44116;50.884;4.768;2023-05-29T12:28:32;12.8;;;3.6;;
58306;SDS011;44116;50.884;4.768;2023-05-29T12:30:36;14.0;;;3.3;;
58306;SDS011;44116;50.884;4.768;2023-05-29T12:34:33;12.6;;;3.1;;
58306;SDS011;44116;50.884;4.768;2023-05-29T12:36:32;12.1;;;3.2;;
58306;SDS011;44116;50.884;4.768;2023-05-29T12:38:32;11.4;;;3.3;;
58306;SDS011;44116;50.884;4.768;2023-05-29T12:40:32;9.8;;;3.1;;
58306;SDS011;44116;50.884;4.768;2023-05-29T12:42:32;10.0;;;3.0;;
58306;SDS011;44116;50.884;4.768;2023-05-29T12:44:31;12.6;;;3.3;;
58306;SDS011;44116;50.884;4.768;2023-05-29T12:46:35;10.7;;;3.2;;
58306;SDS011;44116;50.884;4.768;2023-05-29T12:48:31;10.3;;;3.3;;
58306;SDS011;44116;50.884;4.768;2023-05-29T12:50:33;17.0;;;3.7;;
58306;SDS011;44116;50.884;4.768;2023-05-29T12:52:31;11.4;;;2.9;;
58306;SDS011;44116;50.884;4.768;2023-05-29T12:54:31;12.4;;;3.2;;
58306;SDS011;44116;50.884;4.768;2023-05-29T12:58:31;10.0;;;3.4;;
58306;SDS011;44116;50.884;4.768;2023-05-29T13:00:31;9.5;;;2.9;;
58306;SDS011;44116;50.884;4.768;2023-05-29T13:02:31;9.0;;;3.3;;
58306;SDS011;44116;50.884;4.768;2023-05-29T13:04:31;9.1;;;3.4;;
58306;SDS011;44116;50.884;4.768;2023-05-29T13:06:31;12.0;;;3.1;;
58306;SDS011;44116;50.884;4.768;2023-05-29T13:08:30;9.4;;;3.0;;
58306;SDS011;44116;50.884;4.768;2023-05-29T13:10:30;13.5;;;3.3;;
58306;SDS011;44116;50.884;4.768;2023-05-29T13:12:30;9.1;;;3.0;;
58306;SDS011;44116;50.884;4.768;2023-05-29T13:16:30;17.4;;;3.3;;
58306;SDS011;44116;50.884;4.768;2023-05-29T13:20:30;12.9;;;3.1;;
58306;SDS011;44116;50.884;4.768;2023-05-29T13:22:30;12.9;;;3.2;;
58306;SDS011;44116;50.884;4.768;2023-05-29T13:24:30;10.8;;;3.1;;
58306;SDS011;44116;50.884;4.768;2023-05-29T13:28:30;11.0;;;3.3;;
58306;SDS011;44116;50.884;4.768;2023-05-29T13:30:30;10.9;;;3.2;;
58306;SDS011;44116;50.884;4.768;2023-05-29T13:32:30;7.4;;;2.7;;
58306;SDS011;44116;50.884;4.768;2023-05-29T13:34:29;11.4;;;3.3;;
58306;SDS011;44116;50.884;4.768;2023-05-29T13:36:30;12.2;;;3.2;;
58306;SDS011;44116;50.884;4.768;2023-05-29T13:38:29;12.7;;;3.5;;
58306;SDS011;44116;50.884;4.768;2023-05-29T13:40:29;11.5;;;3.0;;
58306;SDS011;44116;50.884;4.768;2023-05-29T13:42:29;11.0;;;3.6;;
58306;SDS011;44116;50.884;4.768;2023-05-29T13:44:29;10.7;;;3.1;;
58306;SDS011;44116;50.884;4.768;2023-05-29T13:46:29;10.3;;;3.4;;
58306;SDS011;44116;50.884;4.768;2023-05-29T13:50:29;12.9;;;3.5;;